createdAt,value
2022-11-30T00:00:53.287Z,5.60
2022-11-30T00:05:45.510Z,5.60
2022-11-30T00:10:40.945Z,5.50
2022-11-30T00:15:33.217Z,5.60
2022-11-30T00:20:30.042Z,5.60
2022-11-30T00:25:22.116Z,5.60
2022-11-30T00:30:14.932Z,5.60
2022-11-30T00:35:07.073Z,5.60
2022-11-30T00:40:00.236Z,5.60
2022-11-30T00:44:52.143Z,5.50
2022-11-30T00:49:44.056Z,5.60
2022-11-30T00:54:35.945Z,5.60
2022-11-30T00:59:27.949Z,5.60
2022-11-30T01:04:20.754Z,5.60
2022-11-30T01:09:12.889Z,5.60
2022-11-30T01:14:05.100Z,5.60
2022-11-30T01:18:57.401Z,5.60
2022-11-30T01:23:49.776Z,5.50
2022-11-30T01:28:44.100Z,5.50
2022-11-30T01:33:36.318Z,5.50
2022-11-30T01:38:34.904Z,5.50
2022-11-30T01:43:38.863Z,5.50
2022-11-30T01:48:31.159Z,5.50
2022-11-30T01:53:24.712Z,5.50
2022-11-30T01:58:23.777Z,5.50
2022-11-30T02:03:35.505Z,5.50
2022-11-30T02:14:27.078Z,5.50
2022-11-30T02:19:21.854Z,5.40
2022-11-30T02:24:35.578Z,5.40
2022-11-30T02:29:51.395Z,5.30
2022-11-30T02:34:46.823Z,5.30
2022-11-30T02:39:39.154Z,5.30
2022-11-30T02:44:31.415Z,5.20
2022-11-30T02:49:36.070Z,5.30
2022-11-30T02:54:28.092Z,5.20
2022-11-30T02:59:21.764Z,5.10
2022-11-30T03:04:13.954Z,5.20
2022-11-30T03:09:05.918Z,5.20
2022-11-30T03:13:57.972Z,5.10
2022-11-30T03:18:49.839Z,5.10
2022-11-30T03:23:42.096Z,5.10
2022-11-30T03:28:35.008Z,5.00
2022-11-30T03:33:26.995Z,4.90
2022-11-30T03:38:18.916Z,4.80
2022-11-30T03:43:11.227Z,4.80
2022-11-30T03:48:03.234Z,4.70
2022-11-30T03:52:55.129Z,4.60
2022-11-30T03:57:47.051Z,4.60
2022-11-30T04:02:44.338Z,4.50
2022-11-30T04:07:36.735Z,4.60
2022-11-30T04:12:28.737Z,4.50
2022-11-30T04:17:20.627Z,4.40
2022-11-30T04:22:12.571Z,4.30
2022-11-30T04:27:04.525Z,4.30
2022-11-30T04:31:56.506Z,4.30
2022-11-30T04:36:48.646Z,4.20
2022-11-30T04:41:40.554Z,4.20
2022-11-30T04:46:32.688Z,4.20
2022-11-30T04:51:24.625Z,4.20
2022-11-30T04:56:16.648Z,4.20
2022-11-30T05:01:08.955Z,4.20
2022-11-30T05:06:00.906Z,4.20
2022-11-30T05:10:53.910Z,4.20
2022-11-30T05:15:46.902Z,4.30
2022-11-30T05:20:38.849Z,4.30
2022-11-30T05:25:30.858Z,4.20
2022-11-30T05:30:22.813Z,4.30
2022-11-30T05:35:14.807Z,4.30
2022-11-30T05:40:07.363Z,4.20
2022-11-30T05:45:00.759Z,4.30
2022-11-30T05:49:52.710Z,4.30
2022-11-30T05:54:44.751Z,4.20
2022-11-30T05:59:36.842Z,4.10
2022-11-30T06:04:28.839Z,4.10
2022-11-30T06:09:21.066Z,4.00
2022-11-30T06:14:13.193Z,3.90
2022-11-30T06:19:05.411Z,3.80
2022-11-30T06:23:57.580Z,3.60
2022-11-30T06:28:49.580Z,3.60
2022-11-30T06:33:41.540Z,3.50
2022-11-30T06:38:33.634Z,3.50
2022-11-30T06:43:25.566Z,3.50
2022-11-30T06:48:17.775Z,3.60
2022-11-30T06:53:12.118Z,3.60
2022-11-30T06:58:11.327Z,3.60
2022-11-30T07:03:04.775Z,3.60
2022-11-30T07:07:56.778Z,3.60
2022-11-30T07:12:49.567Z,3.50
2022-11-30T07:17:41.558Z,3.60
2022-11-30T07:22:33.705Z,3.70
2022-11-30T07:27:25.719Z,3.80
2022-11-30T07:32:18.492Z,4.00
2022-11-30T07:37:10.573Z,4.10
2022-11-30T07:42:02.509Z,4.40
2022-11-30T07:46:54.575Z,4.80
2022-11-30T07:51:46.565Z,4.90
2022-11-30T07:56:38.749Z,4.90
2022-11-30T08:01:33.113Z,5.00
2022-11-30T08:06:30.334Z,5.40
2022-11-30T08:11:25.498Z,5.40
2022-11-30T08:16:23.497Z,5.50
2022-11-30T08:21:18.575Z,6.30
2022-11-30T08:26:31.804Z,7.40
2022-11-30T08:31:33.074Z,8.50
2022-11-30T08:36:26.583Z,9.10
2022-11-30T08:41:21.456Z,8.80
2022-11-30T08:46:49.139Z,8.50
2022-11-30T08:51:27.720Z,8.30
2022-11-30T08:56:21.371Z,8.00
2022-11-30T09:01:22.240Z,7.80
2022-11-30T09:06:20.356Z,7.40
2022-11-30T09:11:18.977Z,8.70
2022-11-30T09:16:11.946Z,10.10
2022-11-30T09:21:07.366Z,10.20
2022-11-30T09:26:01.335Z,9.40
2022-11-30T09:30:53.727Z,8.00
2022-11-30T09:35:54.146Z,9.20
2022-11-30T09:40:50.916Z,9.10
2022-11-30T09:45:53.266Z,9.90
2022-11-30T09:50:47.483Z,10.50
2022-11-30T09:55:42.674Z,11.10
2022-11-30T10:00:36.936Z,10.60
2022-11-30T10:05:48.373Z,10.80
2022-11-30T10:10:45.201Z,10.70
2022-11-30T10:15:55.314Z,10.90
2022-11-30T10:21:28.738Z,11.70
2022-11-30T10:26:35.665Z,13.40
2022-11-30T10:31:36.746Z,13.80
2022-11-30T10:36:37.433Z,14.70
2022-11-30T10:41:37.934Z,13.90
2022-11-30T10:46:39.042Z,13.20
2022-11-30T10:51:32.912Z,12.40
2022-11-30T10:56:25.836Z,13.00
2022-11-30T11:01:36.036Z,13.00
2022-11-30T11:06:28.117Z,13.00
2022-11-30T11:11:27.515Z,12.40
2022-11-30T11:16:19.645Z,12.50
2022-11-30T11:21:20.119Z,12.60
2022-11-30T11:26:24.215Z,12.60
2022-11-30T11:31:36.764Z,12.30
2022-11-30T11:36:31.610Z,12.30
2022-11-30T11:41:38.098Z,11.70
2022-11-30T11:46:32.850Z,11.20
2022-11-30T11:51:39.921Z,9.80
2022-11-30T11:56:38.268Z,8.80
2022-11-30T12:02:12.338Z,8.10
2022-11-30T12:07:18.332Z,7.70
2022-11-30T12:12:13.368Z,7.60
2022-11-30T12:17:08.195Z,7.40
2022-11-30T12:22:09.121Z,7.40
2022-11-30T12:27:12.666Z,7.30
2022-11-30T12:32:29.867Z,7.40
2022-11-30T12:37:47.905Z,7.30
2022-11-30T12:43:01.483Z,7.30
2022-11-30T12:48:15.222Z,7.10
2022-11-30T12:53:46.034Z,7.00
2022-11-30T12:58:44.784Z,7.10
2022-11-30T13:03:44.249Z,7.10
2022-11-30T13:08:57.378Z,7.20
2022-11-30T13:13:56.582Z,7.20
2022-11-30T13:18:51.315Z,7.20
2022-11-30T13:24:01.475Z,7.20
2022-11-30T13:29:14.909Z,7.20
2022-11-30T13:34:28.073Z,7.30
2022-11-30T13:39:22.209Z,7.50
2022-11-30T13:44:34.034Z,7.40
2022-11-30T13:49:35.788Z,7.20
2022-11-30T13:54:47.579Z,7.20
2022-11-30T13:59:46.744Z,7.00
2022-11-30T14:04:48.349Z,7.10
2022-11-30T14:09:40.327Z,7.00
2022-11-30T14:14:47.270Z,7.00
2022-11-30T14:19:39.511Z,7.00
2022-11-30T14:24:31.657Z,7.00
2022-11-30T14:29:31.520Z,6.90
2022-11-30T14:34:36.402Z,6.80
2022-11-30T14:39:42.242Z,6.80
2022-11-30T14:44:36.480Z,6.60
2022-11-30T14:49:28.598Z,6.50
2022-11-30T14:55:04.441Z,6.40
2022-11-30T14:59:57.133Z,6.20
2022-11-30T15:04:50.896Z,6.20
2022-11-30T15:09:45.564Z,6.30
2022-11-30T15:14:37.731Z,6.40
2022-11-30T15:19:32.160Z,6.50
2022-11-30T15:24:25.165Z,6.60
2022-11-30T15:29:24.555Z,6.60
2022-11-30T15:34:26.017Z,6.60
2022-11-30T15:39:23.730Z,6.50
2022-11-30T15:44:37.499Z,6.50
2022-11-30T15:49:31.215Z,6.50
2022-11-30T15:54:49.204Z,6.40
2022-11-30T15:59:41.632Z,6.40
2022-11-30T16:04:58.533Z,6.40
2022-11-30T16:09:50.678Z,6.50
2022-11-30T16:14:42.689Z,6.50
2022-11-30T16:19:34.643Z,6.40
2022-11-30T16:24:27.252Z,6.40
2022-11-30T16:29:19.738Z,6.40
2022-11-30T16:34:12.273Z,6.40
2022-11-30T16:39:04.933Z,6.50
2022-11-30T16:43:57.810Z,6.40
2022-11-30T16:48:49.944Z,6.40
2022-11-30T16:53:42.008Z,6.30
2022-11-30T16:58:33.916Z,6.30
2022-11-30T17:03:30.039Z,6.30
2022-11-30T17:08:23.051Z,6.20
2022-11-30T17:13:15.657Z,6.10
2022-11-30T17:18:07.659Z,6.10
2022-11-30T17:22:59.636Z,6.00
2022-11-30T17:27:51.982Z,6.10
2022-11-30T17:32:44.294Z,6.00
2022-11-30T17:37:36.378Z,6.00
2022-11-30T17:42:29.557Z,6.00
2022-11-30T17:47:22.440Z,6.00
2022-11-30T17:52:14.431Z,6.10
2022-11-30T17:57:06.398Z,5.90
2022-11-30T18:01:58.550Z,5.90
2022-11-30T18:06:50.526Z,5.90
2022-11-30T18:11:42.553Z,5.80
2022-11-30T18:16:39.110Z,5.70
2022-11-30T18:21:31.317Z,5.60
2022-11-30T18:26:25.497Z,5.50
2022-11-30T18:31:17.550Z,5.30
2022-11-30T18:36:10.235Z,5.10
2022-11-30T18:41:02.210Z,4.90
2022-11-30T18:46:01.280Z,4.80
2022-11-30T18:50:53.292Z,4.90
2022-11-30T18:55:45.257Z,4.90
2022-11-30T19:00:37.165Z,4.90
2022-11-30T19:05:31.895Z,5.00
2022-11-30T19:10:23.849Z,5.00
2022-11-30T19:15:15.943Z,5.00
2022-11-30T19:20:08.249Z,4.90
2022-11-30T19:25:01.543Z,4.90
2022-11-30T19:29:53.547Z,4.90
2022-11-30T19:34:45.776Z,4.90
2022-11-30T19:39:38.048Z,4.80
2022-11-30T19:44:30.126Z,4.60
2022-11-30T19:49:22.183Z,4.60
2022-11-30T19:54:14.145Z,4.50
2022-11-30T19:59:06.387Z,4.40
2022-11-30T20:03:59.031Z,4.30
2022-11-30T20:08:51.185Z,4.20
2022-11-30T20:13:44.329Z,4.10
2022-11-30T20:18:40.081Z,4.00
2022-11-30T20:23:35.150Z,3.90
2022-11-30T20:28:27.436Z,3.70
2022-11-30T20:33:19.461Z,3.70
2022-11-30T20:38:11.501Z,3.60
2022-11-30T20:43:03.762Z,3.60
2022-11-30T20:47:55.841Z,3.60
2022-11-30T20:52:47.956Z,3.50
2022-11-30T20:57:39.901Z,3.50
2022-11-30T21:02:31.960Z,3.50
2022-11-30T21:07:24.022Z,3.60
2022-11-30T21:12:16.033Z,3.60
2022-11-30T21:17:07.957Z,3.50
2022-11-30T21:22:00.081Z,3.40
2022-11-30T21:26:52.170Z,3.30
2022-11-30T21:31:45.367Z,3.40
2022-11-30T21:36:38.943Z,3.40
2022-11-30T21:41:31.053Z,3.30
2022-11-30T21:46:23.126Z,3.20
2022-11-30T21:51:17.976Z,3.30
2022-11-30T21:56:13.163Z,3.40
2022-11-30T22:01:05.652Z,3.30
2022-11-30T22:06:07.276Z,3.30
2022-11-30T22:11:13.351Z,3.20
2022-11-30T22:16:16.554Z,3.20
2022-11-30T22:21:20.053Z,3.10
2022-11-30T22:26:22.487Z,3.20
2022-11-30T22:31:16.572Z,3.10
2022-11-30T22:36:13.326Z,3.10
2022-11-30T22:41:11.485Z,2.90
2022-11-30T22:46:08.076Z,2.80
2022-11-30T22:51:06.208Z,2.60
2022-11-30T22:56:13.584Z,2.60
2022-11-30T23:01:14.460Z,2.60
2022-11-30T23:06:07.550Z,2.60
2022-11-30T23:11:01.277Z,2.70
2022-11-30T23:15:57.471Z,2.60
2022-11-30T23:20:49.971Z,2.60
2022-11-30T23:25:41.917Z,2.50
2022-11-30T23:30:33.921Z,2.60
2022-11-30T23:35:26.001Z,2.50
2022-11-30T23:40:18.540Z,2.50
2022-11-30T23:45:11.210Z,2.60
2022-11-30T23:50:04.584Z,2.60
2022-11-30T23:54:57.782Z,2.70
2022-11-30T23:59:50.069Z,2.60
